Time;durP1;ratioP1;P1;durP2;ratioP2;P2;SDS_P1;SDS_P2;PMS_P1;PMS_P2;Temp;Humidity;BMP_temperature;BMP_pressure;BME280_temperature;BME280_humidity;BME280_pressure;Samples;Min_cycle;Max_cycle;Signal;HPM_P1;HPM_P2
2021/12/17 00:00:45;;;;;;;7.25;4.07;;;;;;;;;;5090904;28;20048;-74
2021/12/17 00:03:18;;;;;;;6.18;3.72;;;;;;;;;;5091547;28;20048;-74
2021/12/17 00:08:14;;;;;;;6.03;3.55;;;;;;;;;;5091690;28;20047;-74
2021/12/17 00:10:40;;;;;;;6.38;3.28;;;;;;;;;;5091045;28;20047;-77
2021/12/17 00:13:06;;;;;;;11.60;3.92;;;;;;;;;;5091630;28;20098;-78
2021/12/17 00:15:32;;;;;;;9.90;4.63;;;;;;;;;;5091300;28;20051;-75
2021/12/17 00:18:05;;;;;;;10.40;4.05;;;;;;;;;;5091860;28;20052;-77
2021/12/17 00:40:34;;;;;;;7.38;3.75;;;;;;;;;;5091370;28;20055;-74
2021/12/17 00:48:36;;;;;;;7.93;4.38;;;;;;;;;;5089923;28;20048;-74
2021/12/17 00:51:37;;;;;;;6.78;4.05;;;;;;;;;;5090830;28;20048;-74
2021/12/17 00:53:55;;;;;;;6.32;3.85;;;;;;;;;;5089304;28;20055;-74
2021/12/17 00:56:22;;;;;;;8.75;4.45;;;;;;;;;;5089576;28;20043;-74
2021/12/17 00:58:48;;;;;;;8.00;4.15;;;;;;;;;;5090001;28;20040;-74
2021/12/17 01:01:14;;;;;;;8.65;4.18;;;;;;;;;;5090262;28;20410;-74
2021/12/17 01:03:40;;;;;;;6.28;3.55;;;;;;;;;;5089632;28;20123;-74
2021/12/17 01:06:06;;;;;;;8.75;3.85;;;;;;;;;;5090243;28;20096;-75
2021/12/17 01:08:32;;;;;;;9.10;3.75;;;;;;;;;;5090233;28;20498;-75
2021/12/17 01:10:59;;;;;;;7.13;3.67;;;;;;;;;;5089974;28;20459;-76
2021/12/17 01:13:25;;;;;;;6.45;3.47;;;;;;;;;;5090015;28;20048;-74
2021/12/17 01:15:52;;;;;;;10.75;3.83;;;;;;;;;;5089471;28;20121;-74
2021/12/17 01:18:21;;;;;;;6.78;3.58;;;;;;;;;;5089861;28;20627;-74
2021/12/17 01:36:42;;;;;;;7.57;3.83;;;;;;;;;;5089153;28;20143;-75
2021/12/17 01:40:21;;;;;;;8.05;3.20;;;;;;;;;;5089718;28;20040;-76
2021/12/17 01:42:06;;;;;;;8.00;3.35;;;;;;;;;;5089439;28;20044;-75
2021/12/17 01:44:34;;;;;;;5.88;3.42;;;;;;;;;;5088052;28;20047;-75
2021/12/17 01:47:00;;;;;;;7.40;3.10;;;;;;;;;;5087849;28;20040;-75
2021/12/17 02:00:07;;;;;;;6.88;3.13;;;;;;;;;;5089128;28;20084;-74
2021/12/17 02:02:40;;;;;;;6.00;3.20;;;;;;;;;;5088740;28;20117;-74
2021/12/17 02:05:06;;;;;;;5.63;3.10;;;;;;;;;;5071595;28;20518;-74
2021/12/17 02:07:32;;;;;;;5.95;2.90;;;;;;;;;;5089835;28;20533;-74
2021/12/17 02:12:59;;;;;;;7.65;3.35;;;;;;;;;;5088192;28;20083;-74
2021/12/17 02:28:46;;;;;;;5.07;2.95;;;;;;;;;;5089288;28;20059;-75
2021/12/17 02:31:25;;;;;;;5.47;2.67;;;;;;;;;;5088879;28;20087;-75
2021/12/17 02:33:51;;;;;;;4.30;2.60;;;;;;;;;;5087991;28;20086;-75
2021/12/17 02:36:22;;;;;;;5.22;2.58;;;;;;;;;;5087434;28;20079;-75
2021/12/17 02:38:48;;;;;;;5.97;3.30;;;;;;;;;;5088151;28;20052;-75
2021/12/17 02:46:45;;;;;;;5.15;3.10;;;;;;;;;;5090391;28;20055;-75
2021/12/17 02:49:11;;;;;;;4.88;3.00;;;;;;;;;;5092370;28;20630;-75
2021/12/17 02:51:37;;;;;;;4.43;2.50;;;;;;;;;;5092520;28;20070;-75
2021/12/17 02:54:04;;;;;;;4.60;2.60;;;;;;;;;;5093192;28;20478;-75
2021/12/17 02:56:30;;;;;;;7.25;2.92;;;;;;;;;;5093290;28;20056;-75
2021/12/17 02:58:56;;;;;;;4.93;2.75;;;;;;;;;;5091505;28;20071;-75
2021/12/17 03:01:22;;;;;;;4.78;2.78;;;;;;;;;;5093285;28;20040;-76
2021/12/17 03:03:52;;;;;;;4.15;2.47;;;;;;;;;;5091788;28;20051;-76
2021/12/17 03:06:19;;;;;;;4.53;2.55;;;;;;;;;;5091731;28;20048;-76
2021/12/17 03:08:47;;;;;;;4.70;2.65;;;;;;;;;;5092624;28;20438;-76
2021/12/17 03:11:13;;;;;;;4.00;2.60;;;;;;;;;;5091533;28;20139;-76
2021/12/17 03:13:42;;;;;;;4.20;2.67;;;;;;;;;;5093256;28;20044;-76
2021/12/17 03:16:26;;;;;;;3.67;2.47;;;;;;;;;;5092793;28;20520;-76
2021/12/17 03:19:24;;;;;;;4.38;2.47;;;;;;;;;;5092850;28;20052;-76
2021/12/17 03:24:26;;;;;;;3.97;2.67;;;;;;;;;;5091181;28;20055;-76
2021/12/17 03:26:52;;;;;;;5.15;3.17;;;;;;;;;;5092909;28;20124;-76
2021/12/17 03:29:18;;;;;;;4.70;2.33;;;;;;;;;;5092580;28;20039;-76
2021/12/17 03:31:44;;;;;;;4.35;2.53;;;;;;;;;;5092643;28;20051;-76
2021/12/17 03:34:19;;;;;;;3.90;2.20;;;;;;;;;;5091594;28;20437;-76
2021/12/17 03:36:53;;;;;;;4.85;2.45;;;;;;;;;;5090720;28;20562;-75
2021/12/17 03:39:20;;;;;;;5.45;2.50;;;;;;;;;;5092461;28;20505;-77
2021/12/17 03:41:49;;;;;;;4.03;2.50;;;;;;;;;;5092555;28;20429;-77
2021/12/17 03:44:16;;;;;;;6.32;2.78;;;;;;;;;;5090987;28;20083;-77
2021/12/17 03:46:44;;;;;;;4.43;2.45;;;;;;;;;;5092244;28;20040;-77
2021/12/17 03:49:10;;;;;;;5.60;2.70;;;;;;;;;;5091051;28;20052;-77
2021/12/17 03:51:47;;;;;;;3.83;2.58;;;;;;;;;;5092045;28;20088;-77
2021/12/17 03:54:13;;;;;;;3.95;2.50;;;;;;;;;;5090068;28;20055;-77
2021/12/17 03:56:39;;;;;;;4.50;2.42;;;;;;;;;;5090931;28;20048;-77
2021/12/17 03:59:10;;;;;;;5.22;2.50;;;;;;;;;;5089684;28;20044;-76
2021/12/17 04:01:36;;;;;;;5.25;2.20;;;;;;;;;;5091491;28;20048;-76
2021/12/17 04:04:03;;;;;;;5.07;2.67;;;;;;;;;;5091107;28;20082;-76
2021/12/17 04:06:29;;;;;;;3.92;2.40;;;;;;;;;;5090761;28;20044;-76
2021/12/17 04:08:55;;;;;;;4.07;2.05;;;;;;;;;;5090088;28;20055;-76
2021/12/17 04:11:21;;;;;;;3.85;2.30;;;;;;;;;;5091107;28;20056;-76
2021/12/17 04:13:56;;;;;;;4.05;2.28;;;;;;;;;;5089897;28;20052;-76
2021/12/17 04:16:26;;;;;;;3.65;2.40;;;;;;;;;;5089889;28;20135;-76
2021/12/17 04:18:52;;;;;;;4.22;2.40;;;;;;;;;;5089461;28;20051;-76
2021/12/17 04:21:19;;;;;;;3.28;2.03;;;;;;;;;;5090986;28;20044;-76
2021/12/17 04:23:46;;;;;;;5.15;2.40;;;;;;;;;;5089524;28;20044;-76
2021/12/17 04:26:13;;;;;;;3.63;2.00;;;;;;;;;;5090440;28;20048;-76
2021/12/17 04:28:48;;;;;;;5.35;2.38;;;;;;;;;;5090955;28;20080;-76
2021/12/17 04:31:15;;;;;;;2.88;2.08;;;;;;;;;;5090213;28;20119;-76
2021/12/17 04:33:42;;;;;;;3.85;1.95;;;;;;;;;;5089858;28;20460;-76
2021/12/17 04:36:10;;;;;;;5.80;2.10;;;;;;;;;;5090601;28;20097;-76
2021/12/17 04:38:36;;;;;;;3.63;2.00;;;;;;;;;;5090475;28;20052;-76
2021/12/17 04:41:38;;;;;;;10.18;2.22;;;;;;;;;;5090896;28;20486;-76
2021/12/17 04:46:40;;;;;;;6.25;1.70;;;;;;;;;;5089893;28;20048;-76
2021/12/17 04:57:20;;;;;;;5.97;1.98;;;;;;;;;;5091188;28;20140;-75
2021/12/17 04:57:37;;;;;;;5.25;1.77;;;;;;;;;;5091018;28;20056;-75
2021/12/17 05:00:09;;;;;;;4.28;1.58;;;;;;;;;;5072049;28;20048;-75
2021/12/17 05:02:40;;;;;;;2.78;1.50;;;;;;;;;;5089828;28;20051;-75
2021/12/17 05:05:08;;;;;;;3.22;1.70;;;;;;;;;;5090817;28;20044;-75
2021/12/17 05:07:36;;;;;;;4.97;1.70;;;;;;;;;;5089349;28;20191;-75
2021/12/17 05:20:54;;;;;;;2.92;1.50;;;;;;;;;;5090005;28;20139;-75
2021/12/17 05:23:25;;;;;;;3.42;1.77;;;;;;;;;;5089273;28;20131;-75
2021/12/17 05:25:52;;;;;;;3.33;1.60;;;;;;;;;;5089124;28;20093;-75
2021/12/17 05:28:18;;;;;;;2.53;1.40;;;;;;;;;;5089906;28;20136;-75
2021/12/17 05:30:46;;;;;;;4.07;1.70;;;;;;;;;;5090507;28;20118;-75
2021/12/17 05:33:13;;;;;;;6.07;1.52;;;;;;;;;;5090097;28;20052;-75
2021/12/17 05:35:39;;;;;;;4.10;1.70;;;;;;;;;;5089954;28;20044;-75
2021/12/17 05:38:05;;;;;;;4.80;1.38;;;;;;;;;;5089966;28;20119;-75
2021/12/17 05:40:31;;;;;;;5.60;1.90;;;;;;;;;;5090095;28;20047;-75
2021/12/17 05:43:00;;;;;;;4.53;2.00;;;;;;;;;;5089915;28;20596;-75
2021/12/17 05:45:47;;;;;;;4.55;1.63;;;;;;;;;;5090148;28;20048;-75
2021/12/17 05:48:14;;;;;;;2.83;1.60;;;;;;;;;;5089801;28;20076;-75
2021/12/17 05:50:42;;;;;;;2.53;1.40;;;;;;;;;;5088811;28;20048;-75
2021/12/17 05:53:08;;;;;;;2.58;1.55;;;;;;;;;;5089787;28;20525;-75
2021/12/17 05:55:35;;;;;;;2.20;1.20;;;;;;;;;;5088613;28;20043;-75
2021/12/17 05:58:01;;;;;;;2.85;1.77;;;;;;;;;;5089310;28;20082;-75
2021/12/17 06:00:31;;;;;;;3.10;1.83;;;;;;;;;;5089740;28;20084;-75
2021/12/17 06:02:58;;;;;;;2.33;1.38;;;;;;;;;;5071493;28;20086;-75
2021/12/17 06:05:24;;;;;;;2.92;1.50;;;;;;;;;;5089931;28;20118;-75
2021/12/17 06:07:50;;;;;;;3.30;1.30;;;;;;;;;;5089779;28;20051;-75
2021/12/17 06:10:17;;;;;;;6.38;1.45;;;;;;;;;;5088259;28;20048;-75
2021/12/17 06:12:43;;;;;;;3.92;2.10;;;;;;;;;;5088716;28;20052;-75
2021/12/17 06:15:11;;;;;;;3.55;1.70;;;;;;;;;;5088562;28;20047;-75
2021/12/17 06:17:37;;;;;;;2.72;1.30;;;;;;;;;;5088741;28;20047;-74
2021/12/17 06:20:04;;;;;;;3.55;1.50;;;;;;;;;;5088136;28;20105;-74
2021/12/17 06:22:30;;;;;;;2.25;1.30;;;;;;;;;;5088759;28;20036;-74
2021/12/17 06:24:56;;;;;;;2.92;1.60;;;;;;;;;;5088409;28;20520;-74
2021/12/17 06:27:25;;;;;;;2.08;1.38;;;;;;;;;;5088692;28;20040;-74
2021/12/17 06:29:52;;;;;;;2.85;1.30;;;;;;;;;;5070668;28;20450;-76
2021/12/17 06:32:19;;;;;;;2.08;1.15;;;;;;;;;;5087627;28;20074;-77
2021/12/17 06:34:45;;;;;;;2.70;1.40;;;;;;;;;;5088070;28;20044;-78
2021/12/17 06:37:11;;;;;;;2.72;1.40;;;;;;;;;;5087568;28;20051;-76
2021/12/17 06:39:37;;;;;;;2.63;1.45;;;;;;;;;;5088586;28;20048;-76
2021/12/17 06:42:03;;;;;;;5.07;1.30;;;;;;;;;;5088666;28;20055;-76
2021/12/17 06:44:30;;;;;;;4.13;1.50;;;;;;;;;;5088909;28;20051;-76
2021/12/17 06:47:25;;;;;;;1.98;1.27;;;;;;;;;;5088779;28;20052;-76
2021/12/17 06:49:58;;;;;;;2.53;1.38;;;;;;;;;;5089071;28;20071;-75
2021/12/17 06:55:46;;;;;;;3.53;1.63;;;;;;;;;;5087714;28;20052;-77
2021/12/17 07:11:49;;;;;;;2.25;1.30;;;;;;;;;;5088836;28;20470;-77
2021/12/17 07:17:18;;;;;;;4.25;1.70;;;;;;;;;;5088794;28;20063;-77
2021/12/17 07:22:51;;;;;;;2.25;1.25;;;;;;;;;;5088954;28;20083;-78
2021/12/17 07:28:49;;;;;;;1.98;1.30;;;;;;;;;;5088723;28;20181;-77
2021/12/17 07:33:42;;;;;;;4.15;1.35;;;;;;;;;;5091599;28;20083;-78
2021/12/17 07:36:12;;;;;;;2.13;1.35;;;;;;;;;;5091519;28;20043;-78
2021/12/17 07:38:46;;;;;;;2.33;1.50;;;;;;;;;;5090905;28;20048;-77
2021/12/17 07:41:12;;;;;;;3.55;1.60;;;;;;;;;;5091736;28;20106;-78
2021/12/17 07:43:39;;;;;;;2.55;1.27;;;;;;;;;;5092570;28;20141;-79
2021/12/17 07:46:07;;;;;;;2.58;1.40;;;;;;;;;;5073568;28;20108;-80
2021/12/17 07:48:34;;;;;;;11.02;1.63;;;;;;;;;;5092111;28;20047;-78
2021/12/17 07:51:04;;;;;;;3.55;1.58;;;;;;;;;;5091153;28;20383;-80
2021/12/17 07:53:31;;;;;;;2.85;1.20;;;;;;;;;;5090531;28;20056;-78
2021/12/17 07:55:57;;;;;;;4.40;1.20;;;;;;;;;;5091002;28;20618;-77
2021/12/17 07:58:23;;;;;;;3.33;1.77;;;;;;;;;;5092288;28;20429;-75
2021/12/17 08:00:49;;;;;;;3.80;1.70;;;;;;;;;;5090868;28;20063;-76
2021/12/17 08:03:15;;;;;;;4.25;1.40;;;;;;;;;;5092134;28;20390;-78
2021/12/17 08:05:45;;;;;;;4.65;1.38;;;;;;;;;;5090424;28;20048;-78
2021/12/17 08:08:11;;;;;;;2.45;1.10;;;;;;;;;;5091493;28;20052;-76
2021/12/17 08:10:37;;;;;;;4.00;1.45;;;;;;;;;;5090239;28;20464;-77
2021/12/17 08:13:06;;;;;;;2.70;1.25;;;;;;;;;;5090307;28;20494;-76
2021/12/17 08:15:38;;;;;;;2.90;1.45;;;;;;;;;;5090606;28;20414;-78
2021/12/17 08:26:05;;;;;;;2.80;1.63;;;;;;;;;;5089711;28;20095;-77
2021/12/17 08:28:52;;;;;;;2.92;1.30;;;;;;;;;;5090365;28;20175;-77
2021/12/17 08:31:18;;;;;;;2.75;1.25;;;;;;;;;;5090084;28;20048;-77
2021/12/17 08:33:45;;;;;;;3.20;1.48;;;;;;;;;;5090735;28;20169;-76
2021/12/17 08:36:11;;;;;;;2.95;1.63;;;;;;;;;;5090839;28;20052;-77
2021/12/17 08:38:37;;;;;;;2.33;1.40;;;;;;;;;;5091114;28;20101;-77
2021/12/17 08:41:04;;;;;;;3.47;1.27;;;;;;;;;;5089500;28;20115;-78
2021/12/17 08:43:31;;;;;;;2.38;1.30;;;;;;;;;;5089534;28;20055;-79
2021/12/17 08:45:57;;;;;;;2.42;1.17;;;;;;;;;;5090850;28;20048;-79
2021/12/17 08:48:23;;;;;;;2.35;1.30;;;;;;;;;;5090726;28;20059;-78
2021/12/17 08:50:49;;;;;;;1.73;1.20;;;;;;;;;;5072190;28;20044;-79
2021/12/17 08:53:15;;;;;;;4.68;1.40;;;;;;;;;;5089180;28;20090;-77
2021/12/17 08:55:41;;;;;;;1.90;1.40;;;;;;;;;;5090445;28;20089;-79
2021/12/17 08:58:12;;;;;;;1.92;1.17;;;;;;;;;;5089342;28;20040;-80
2021/12/17 09:00:38;;;;;;;1.92;1.30;;;;;;;;;;5072355;28;20044;-79
2021/12/17 09:03:04;;;;;;;1.45;0.80;;;;;;;;;;5089306;28;20048;-78
2021/12/17 09:05:30;;;;;;;2.08;1.10;;;;;;;;;;5072206;28;20391;-78
2021/12/17 09:07:56;;;;;;;2.33;1.35;;;;;;;;;;5089951;28;20040;-79
2021/12/17 09:10:23;;;;;;;2.10;1.20;;;;;;;;;;5088976;28;20060;-80
2021/12/17 09:12:49;;;;;;;8.05;1.33;;;;;;;;;;5088755;28;20044;-81
2021/12/17 09:15:15;;;;;;;3.92;1.30;;;;;;;;;;5090021;28;20097;-82
2021/12/17 09:17:41;;;;;;;3.67;1.63;;;;;;;;;;5089889;28;20048;-79
2021/12/17 09:20:08;;;;;;;2.00;1.05;;;;;;;;;;5089996;28;20082;-81
2021/12/17 09:22:34;;;;;;;8.68;1.30;;;;;;;;;;5090052;28;20409;-78
2021/12/17 09:25:01;;;;;;;2.72;1.10;;;;;;;;;;5088587;28;20342;-81
2021/12/17 09:27:27;;;;;;;2.78;1.10;;;;;;;;;;5089634;28;20448;-82
2021/12/17 09:29:53;;;;;;;3.50;1.00;;;;;;;;;;5088913;28;20127;-79
2021/12/17 09:32:21;;;;;;;2.42;1.00;;;;;;;;;;5089755;28;20105;-77
2021/12/17 09:34:47;;;;;;;2.30;1.20;;;;;;;;;;5089849;28;20044;-76
2021/12/17 09:37:13;;;;;;;2.25;1.17;;;;;;;;;;5089654;28;20139;-78
2021/12/17 09:39:39;;;;;;;2.22;1.08;;;;;;;;;;5071762;28;20044;-80
2021/12/17 09:42:05;;;;;;;2.58;1.10;;;;;;;;;;5089429;28;20047;-78
2021/12/17 09:44:31;;;;;;;2.92;1.10;;;;;;;;;;5088498;28;20048;-80
2021/12/17 09:46:59;;;;;;;1.83;1.00;;;;;;;;;;5089643;28;20047;-79
2021/12/17 09:49:25;;;;;;;3.53;1.30;;;;;;;;;;5088658;28;20056;-78
2021/12/17 09:51:51;;;;;;;3.53;1.10;;;;;;;;;;5088022;28;20048;-78
2021/12/17 09:54:18;;;;;;;2.60;1.05;;;;;;;;;;5072634;28;20457;-79
2021/12/17 09:56:44;;;;;;;1.38;0.90;;;;;;;;;;5086168;28;20044;-78
2021/12/17 09:59:11;;;;;;;1.88;0.90;;;;;;;;;;5083537;28;20101;-79
2021/12/17 10:01:38;;;;;;;2.17;1.20;;;;;;;;;;5080425;28;20087;-78
2021/12/17 10:04:14;;;;;;;2.50;1.02;;;;;;;;;;5088565;28;20527;-77
2021/12/17 10:06:40;;;;;;;2.60;1.17;;;;;;;;;;5089026;28;20540;-79
2021/12/17 10:09:07;;;;;;;3.45;1.30;;;;;;;;;;5088033;28;20055;-78
2021/12/17 10:11:33;;;;;;;4.57;1.52;;;;;;;;;;5070657;28;20060;-79
2021/12/17 10:14:15;;;;;;;4.10;1.30;;;;;;;;;;5088876;28;20048;-77
2021/12/17 10:16:41;;;;;;;5.43;1.45;;;;;;;;;;5087997;28;20050;-80
2021/12/17 10:19:07;;;;;;;3.78;1.40;;;;;;;;;;5085989;28;20048;-79
2021/12/17 10:21:38;;;;;;;3.95;1.30;;;;;;;;;;5088312;28;20136;-78
2021/12/17 10:24:04;;;;;;;2.72;1.30;;;;;;;;;;5070876;28;20044;-81
2021/12/17 10:26:40;;;;;;;4.07;1.20;;;;;;;;;;5088211;28;20044;-80
2021/12/17 10:29:06;;;;;;;4.43;1.80;;;;;;;;;;5086984;28;20040;-77
2021/12/17 10:31:36;;;;;;;5.90;1.52;;;;;;;;;;5088420;28;20040;-78
2021/12/17 10:34:04;;;;;;;6.70;1.42;;;;;;;;;;5086571;28;20482;-80
2021/12/17 10:36:31;;;;;;;7.03;1.60;;;;;;;;;;5076705;28;20062;-81
2021/12/17 10:38:58;;;;;;;7.53;1.25;;;;;;;;;;5075483;28;20041;-81
2021/12/17 10:41:27;;;;;;;3.95;1.30;;;;;;;;;;5088967;28;20071;-80
2021/12/17 10:43:59;;;;;;;5.78;1.40;;;;;;;;;;5087855;28;20040;-80
2021/12/17 10:46:29;;;;;;;2.85;1.30;;;;;;;;;;5088338;28;20497;-80
2021/12/17 10:54:12;;;;;;;3.63;1.20;;;;;;;;;;5087102;28;20066;-80
2021/12/17 10:56:46;;;;;;;3.75;1.02;;;;;;;;;;5070319;28;20052;-80
2021/12/17 10:59:13;;;;;;;9.88;2.00;;;;;;;;;;5086239;28;20525;-80
2021/12/17 11:01:44;;;;;;;3.42;1.15;;;;;;;;;;5086989;28;20088;-80
2021/12/17 11:04:12;;;;;;;2.55;1.00;;;;;;;;;;5088391;28;20444;-80
2021/12/17 11:06:48;;;;;;;3.30;1.00;;;;;;;;;;5089624;28;20098;-80
2021/12/17 11:09:34;;;;;;;4.45;1.17;;;;;;;;;;5091830;28;20572;-80
2021/12/17 11:12:06;;;;;;;2.47;1.00;;;;;;;;;;5093747;28;20135;-80
2021/12/17 11:14:32;;;;;;;2.30;0.90;;;;;;;;;;5093281;28;20433;-81
2021/12/17 11:16:58;;;;;;;2.10;1.05;;;;;;;;;;5087189;28;20518;-79
2021/12/17 11:19:24;;;;;;;1.85;1.02;;;;;;;;;;5084681;28;20498;-80
2021/12/17 11:22:01;;;;;;;2.45;0.80;;;;;;;;;;5091832;28;20048;-82
2021/12/17 11:24:27;;;;;;;2.88;0.95;;;;;;;;;;5090874;28;20048;-81
2021/12/17 11:26:53;;;;;;;1.45;0.80;;;;;;;;;;5091331;28;20065;-85
2021/12/17 11:29:19;;;;;;;1.73;0.80;;;;;;;;;;5092032;28;20040;-83
2021/12/17 11:31:48;;;;;;;3.47;1.08;;;;;;;;;;5091375;28;20519;-82
2021/12/17 11:34:16;;;;;;;2.50;1.10;;;;;;;;;;5092849;28;20052;-83
2021/12/17 11:36:42;;;;;;;2.55;1.02;;;;;;;;;;5090842;28;20060;-82
2021/12/17 11:39:29;;;;;;;1.90;0.80;;;;;;;;;;5084096;28;20056;-82
2021/12/17 11:42:18;;;;;;;2.70;0.82;;;;;;;;;;5091989;28;20068;-82
2021/12/17 11:44:53;;;;;;;2.40;0.93;;;;;;;;;;5091013;28;20052;-84
2021/12/17 11:47:19;;;;;;;2.60;0.90;;;;;;;;;;5092321;28;20051;-81
2021/12/17 11:49:52;;;;;;;2.53;0.90;;;;;;;;;;5091711;28;20044;-81
2021/12/17 11:52:34;;;;;;;4.55;0.70;;;;;;;;;;5091028;28;20502;-82
2021/12/17 11:55:27;;;;;;;1.98;0.93;;;;;;;;;;5091970;28;20414;-81
2021/12/17 11:57:55;;;;;;;3.17;1.10;;;;;;;;;;5072499;28;20056;-81
2021/12/17 12:00:26;;;;;;;1.77;0.80;;;;;;;;;;5090561;28;20326;-80
2021/12/17 12:02:55;;;;;;;3.38;0.90;;;;;;;;;;5092229;28;20067;-83
2021/12/17 12:05:42;;;;;;;2.22;0.82;;;;;;;;;;5092189;28;20047;-82
2021/12/17 12:08:30;;;;;;;1.77;0.68;;;;;;;;;;5092901;28;20048;-80
2021/12/17 12:11:07;;;;;;;2.08;1.15;;;;;;;;;;5092234;28;20068;-80
2021/12/17 12:13:52;;;;;;;2.85;1.10;;;;;;;;;;5093490;28;20078;-78
2021/12/17 12:16:19;;;;;;;2.40;1.00;;;;;;;;;;5092026;28;20059;-81
2021/12/17 12:18:47;;;;;;;2.45;1.17;;;;;;;;;;5089036;28;20048;-79
2021/12/17 12:21:16;;;;;;;2.10;0.95;;;;;;;;;;5091294;28;20127;-81
2021/12/17 12:23:43;;;;;;;2.33;1.20;;;;;;;;;;5074790;28;20149;-79
2021/12/17 12:26:11;;;;;;;3.53;1.50;;;;;;;;;;5091125;28;20060;-78
2021/12/17 12:28:40;;;;;;;3.15;1.20;;;;;;;;;;5090048;28;20066;-78
2021/12/17 12:31:07;;;;;;;3.38;1.30;;;;;;;;;;5089591;28;20105;-80
2021/12/17 12:33:33;;;;;;;2.70;1.52;;;;;;;;;;5091483;28;20450;-81
2021/12/17 12:35:59;;;;;;;2.72;1.00;;;;;;;;;;5091100;28;20044;-82
2021/12/17 12:38:31;;;;;;;3.45;1.50;;;;;;;;;;5093722;28;20047;-81
2021/12/17 12:41:00;;;;;;;3.50;1.40;;;;;;;;;;5079887;28;20052;-83
2021/12/17 12:43:34;;;;;;;2.83;1.30;;;;;;;;;;5086160;28;20040;-79
2021/12/17 12:46:00;;;;;;;3.92;1.40;;;;;;;;;;5077860;28;20540;-82
2021/12/17 12:48:29;;;;;;;4.65;1.67;;;;;;;;;;5091431;28;20109;-82
2021/12/17 12:51:22;;;;;;;3.58;1.30;;;;;;;;;;5089543;28;20074;-80
2021/12/17 12:54:08;;;;;;;2.72;1.20;;;;;;;;;;5088149;28;20044;-79
2021/12/17 12:56:38;;;;;;;5.00;1.50;;;;;;;;;;5088205;28;20056;-77
2021/12/17 12:59:06;;;;;;;4.28;1.70;;;;;;;;;;5089191;28;20410;-76
2021/12/17 13:01:32;;;;;;;4.20;1.30;;;;;;;;;;5090484;28;20177;-76
2021/12/17 13:03:58;;;;;;;4.63;1.40;;;;;;;;;;5091197;28;20040;-76
2021/12/17 13:06:25;;;;;;;2.78;1.30;;;;;;;;;;5090391;28;20075;-75
2021/12/17 13:08:55;;;;;;;3.67;1.30;;;;;;;;;;5090608;28;20052;-75
2021/12/17 13:11:21;;;;;;;6.25;1.95;;;;;;;;;;5089237;28;20117;-75
2021/12/17 13:13:52;;;;;;;6.18;1.67;;;;;;;;;;5089263;28;20087;-75
2021/12/17 13:17:06;;;;;;;4.18;1.45;;;;;;;;;;5089130;28;20044;-75
2021/12/17 13:24:25;;;;;;;3.50;1.17;;;;;;;;;;5088110;28;20048;-75
2021/12/17 13:27:02;;;;;;;5.40;1.25;;;;;;;;;;5090081;28;20101;-75
2021/12/17 13:29:30;;;;;;;4.80;1.40;;;;;;;;;;5089439;28;20122;-75
2021/12/17 13:32:01;;;;;;;1.67;1.08;;;;;;;;;;5088485;28;20082;-75
2021/12/17 13:34:37;;;;;;;3.47;1.20;;;;;;;;;;5089551;28;20439;-75
2021/12/17 13:37:12;;;;;;;3.38;1.10;;;;;;;;;;5089856;28;20544;-76
2021/12/17 13:39:54;;;;;;;3.92;1.20;;;;;;;;;;5071483;28;20040;-76
2021/12/17 13:42:30;;;;;;;4.88;1.40;;;;;;;;;;5089317;28;20044;-76
2021/12/17 13:45:01;;;;;;;5.60;1.20;;;;;;;;;;5088475;28;20080;-76
2021/12/17 13:47:30;;;;;;;2.05;1.05;;;;;;;;;;5088364;28;20048;-75
2021/12/17 13:50:08;;;;;;;1.85;0.93;;;;;;;;;;5089820;28;20052;-75
2021/12/17 13:52:36;;;;;;;3.05;1.10;;;;;;;;;;5088115;28;20044;-76
2021/12/17 13:55:04;;;;;;;5.60;1.25;;;;;;;;;;5089350;28;20040;-75
2021/12/17 13:57:31;;;;;;;4.20;1.30;;;;;;;;;;5088250;28;20402;-75
2021/12/17 14:00:17;;;;;;;3.08;1.15;;;;;;;;;;5089212;28;20511;-76
2021/12/17 14:02:44;;;;;;;4.13;1.20;;;;;;;;;;5088875;28;20198;-76
2021/12/17 14:05:11;;;;;;;3.63;1.20;;;;;;;;;;5089360;28;20036;-76
2021/12/17 14:07:38;;;;;;;3.13;1.00;;;;;;;;;;5089481;28;20051;-78
2021/12/17 14:10:11;;;;;;;2.83;1.33;;;;;;;;;;5088373;28;20060;-77
2021/12/17 14:12:39;;;;;;;2.50;1.05;;;;;;;;;;5088313;28;20407;-77
2021/12/17 14:15:11;;;;;;;1.92;0.90;;;;;;;;;;5088924;28;20642;-78
2021/12/17 14:17:45;;;;;;;2.25;0.95;;;;;;;;;;5087434;28;20048;-78
2021/12/17 14:20:12;;;;;;;3.58;1.20;;;;;;;;;;5088854;28;20044;-78
2021/12/17 14:22:39;;;;;;;1.80;0.93;;;;;;;;;;5089067;28;20506;-78
2021/12/17 14:25:24;;;;;;;2.58;1.10;;;;;;;;;;5089100;28;20044;-75
2021/12/17 14:27:50;;;;;;;2.75;1.13;;;;;;;;;;5087311;28;20050;-78
2021/12/17 14:30:16;;;;;;;2.88;1.10;;;;;;;;;;5089224;28;20391;-77
2021/12/17 14:32:43;;;;;;;2.53;1.05;;;;;;;;;;5084512;28;20757;-76
2021/12/17 14:35:10;;;;;;;2.67;1.10;;;;;;;;;;5088843;28;20088;-77
2021/12/17 14:37:48;;;;;;;2.15;0.82;;;;;;;;;;5086738;28;20054;-77
2021/12/17 14:40:29;;;;;;;1.70;0.82;;;;;;;;;;5088624;28;20079;-77
2021/12/17 14:42:57;;;;;;;3.65;1.08;;;;;;;;;;5087148;28;20090;-77
2021/12/17 14:45:31;;;;;;;2.47;0.93;;;;;;;;;;5088882;28;20083;-76
2021/12/17 14:48:14;;;;;;;8.85;1.13;;;;;;;;;;5087552;28;20056;-81
2021/12/17 15:02:26;;;;;;;2.25;1.10;;;;;;;;;;5085855;28;20055;-83
2021/12/17 15:04:52;;;;;;;2.92;0.80;;;;;;;;;;5093263;28;20476;-80
2021/12/17 15:07:19;;;;;;;3.65;1.00;;;;;;;;;;5089141;28;20268;-78
2021/12/17 15:09:46;;;;;;;3.47;0.88;;;;;;;;;;5091219;28;20102;-84
2021/12/17 15:12:37;;;;;;;2.85;1.17;;;;;;;;;;5094140;28;20055;-82
2021/12/17 15:15:23;;;;;;;7.35;1.88;;;;;;;;;;5095642;28;20040;-77
2021/12/17 15:17:51;;;;;;;10.60;2.40;;;;;;;;;;5088025;28;20044;-81
2021/12/17 15:20:18;;;;;;;9.73;3.50;;;;;;;;;;5088955;28;20048;-79
2021/12/17 15:22:44;;;;;;;13.75;4.22;;;;;;;;;;5089731;28;20049;-81
2021/12/17 15:25:11;;;;;;;16.95;4.80;;;;;;;;;;5095379;28;20063;-79
2021/12/17 15:27:38;;;;;;;15.02;4.97;;;;;;;;;;5092583;28;20051;-82
2021/12/17 15:30:09;;;;;;;16.85;5.65;;;;;;;;;;5097467;28;20047;-78
2021/12/17 15:32:35;;;;;;;17.02;6.28;;;;;;;;;;5089096;28;20307;-78
2021/12/17 15:35:01;;;;;;;23.77;7.07;;;;;;;;;;5074602;28;20453;-81
2021/12/17 15:37:27;;;;;;;19.95;7.25;;;;;;;;;;5093147;28;20060;-80
2021/12/17 15:39:53;;;;;;;22.17;7.60;;;;;;;;;;5094295;28;20052;-83
2021/12/17 15:42:19;;;;;;;25.38;8.25;;;;;;;;;;5091287;28;20561;-83
2021/12/17 15:44:45;;;;;;;20.17;7.53;;;;;;;;;;5089040;28;20109;-84
2021/12/17 15:47:11;;;;;;;21.08;8.45;;;;;;;;;;5090562;28;20504;-83
2021/12/17 15:49:38;;;;;;;26.70;9.80;;;;;;;;;;5089054;28;20085;-79
2021/12/17 15:52:08;;;;;;;26.98;9.15;;;;;;;;;;5089031;28;20058;-76
2021/12/17 15:54:37;;;;;;;29.30;9.98;;;;;;;;;;5091547;28;20044;-80
2021/12/17 15:57:05;;;;;;;26.25;9.27;;;;;;;;;;5091987;28;20048;-82
2021/12/17 15:59:31;;;;;;;30.48;9.82;;;;;;;;;;5093822;28;20036;-80
2021/12/17 16:01:57;;;;;;;30.45;10.30;;;;;;;;;;5091932;28;20047;-79
2021/12/17 16:04:23;;;;;;;29.85;10.65;;;;;;;;;;5093039;28;20052;-80
2021/12/17 16:06:49;;;;;;;31.33;10.65;;;;;;;;;;5092042;28;20122;-81
2021/12/17 16:09:57;;;;;;;30.55;11.02;;;;;;;;;;5093691;28;20448;-81
2021/12/17 16:16:50;;;;;;;33.47;11.20;;;;;;;;;;5098084;28;20052;-79
2021/12/17 16:23:08;;;;;;;32.88;11.45;;;;;;;;;;5094635;28;20301;-78
2021/12/17 16:25:34;;;;;;;28.50;11.98;;;;;;;;;;5091319;28;20044;-83
2021/12/17 16:28:00;;;;;;;30.17;11.10;;;;;;;;;;5074943;28;20127;-81
2021/12/17 16:30:27;;;;;;;32.85;13.07;;;;;;;;;;5097173;28;20040;-83
2021/12/17 16:32:53;;;;;;;35.22;11.40;;;;;;;;;;5093984;28;20051;-83
2021/12/17 16:35:19;;;;;;;29.75;11.13;;;;;;;;;;5093129;28;20054;-83
2021/12/17 16:37:45;;;;;;;31.38;10.88;;;;;;;;;;5090079;28;20048;-83
2021/12/17 16:40:12;;;;;;;35.08;11.60;;;;;;;;;;5090865;28;20046;-84
2021/12/17 16:42:39;;;;;;;29.83;11.20;;;;;;;;;;5088973;28;20067;-84
2021/12/17 16:47:47;;;;;;;34.70;11.75;;;;;;;;;;5090542;28;20052;-84
2021/12/17 16:50:13;;;;;;;32.50;11.25;;;;;;;;;;5073438;28;20500;-83
2021/12/17 16:52:39;;;;;;;32.67;11.63;;;;;;;;;;5091446;28;20040;-81
2021/12/17 16:55:06;;;;;;;33.75;11.57;;;;;;;;;;5088717;28;20047;-83
2021/12/17 16:57:33;;;;;;;29.30;11.27;;;;;;;;;;5090039;28;20398;-82
2021/12/17 16:59:59;;;;;;;35.63;12.85;;;;;;;;;;5068630;28;20040;-82
2021/12/17 17:02:25;;;;;;;29.40;11.38;;;;;;;;;;5070658;28;20055;-81
2021/12/17 17:04:51;;;;;;;30.00;10.88;;;;;;;;;;5090984;28;20054;-82
2021/12/17 17:07:17;;;;;;;29.90;11.23;;;;;;;;;;5091343;28;20058;-83
2021/12/17 17:09:44;;;;;;;35.80;11.75;;;;;;;;;;5087708;28;20138;-79
2021/12/17 17:12:11;;;;;;;30.08;10.80;;;;;;;;;;5086890;28;20048;-80
2021/12/17 17:14:38;;;;;;;29.73;11.48;;;;;;;;;;5087932;28;20059;-77
2021/12/17 17:17:05;;;;;;;28.08;10.77;;;;;;;;;;5088264;28;20067;-81
2021/12/17 17:19:35;;;;;;;31.05;11.50;;;;;;;;;;5086897;28;20052;-78
2021/12/17 17:22:01;;;;;;;29.53;11.23;;;;;;;;;;5088015;28;20044;-82
2021/12/17 17:24:27;;;;;;;26.05;11.05;;;;;;;;;;5089604;28;20559;-73
2021/12/17 17:26:53;;;;;;;26.98;10.98;;;;;;;;;;5088074;28;20036;-76
2021/12/17 17:29:19;;;;;;;31.13;11.18;;;;;;;;;;5087294;28;20097;-76
2021/12/17 17:31:46;;;;;;;35.08;11.32;;;;;;;;;;5085823;28;20399;-74
2021/12/17 17:34:13;;;;;;;31.23;11.20;;;;;;;;;;5088314;28;20123;-75
2021/12/17 17:36:40;;;;;;;29.75;10.20;;;;;;;;;;5088391;28;20273;-75
2021/12/17 17:39:08;;;;;;;26.33;11.52;;;;;;;;;;5088356;28;20549;-74
2021/12/17 17:41:34;;;;;;;29.40;10.63;;;;;;;;;;5087132;28;20079;-73